createdAt,value
2023-02-14T00:01:13.784Z,21.10
2023-02-14T00:03:40.811Z,21.10
2023-02-14T00:06:13.467Z,21.00
2023-02-14T00:08:44.384Z,21.10
2023-02-14T00:11:12.560Z,21.10
2023-02-14T00:13:39.685Z,21.10
2023-02-14T00:16:06.970Z,21.00
2023-02-14T00:18:52.420Z,21.10
2023-02-14T00:21:19.456Z,21.30
2023-02-14T00:23:46.467Z,21.20
2023-02-14T00:26:15.200Z,21.20
2023-02-14T00:28:42.677Z,21.20
2023-02-14T00:31:10.272Z,21.20
2023-02-14T00:33:37.683Z,21.50
2023-02-14T00:36:07.078Z,21.30
2023-02-14T00:38:34.647Z,21.20
2023-02-14T00:41:02.300Z,21.20
2023-02-14T00:43:29.687Z,21.20
2023-02-14T00:45:57.201Z,21.10
2023-02-14T00:48:24.503Z,21.20
2023-02-14T00:50:51.559Z,21.40
2023-02-14T00:53:18.673Z,21.30
2023-02-14T00:55:47.013Z,21.30
2023-02-14T00:58:14.286Z,21.30
2023-02-14T01:00:41.388Z,21.40
2023-02-14T01:03:08.435Z,21.50
2023-02-14T01:05:35.716Z,21.60
2023-02-14T01:08:02.854Z,21.90
2023-02-14T01:10:29.838Z,22.20
2023-02-14T01:12:56.842Z,22.10
2023-02-14T01:15:23.948Z,22.00
2023-02-14T01:17:50.908Z,22.40
2023-02-14T01:20:18.033Z,22.80
2023-02-14T01:22:45.094Z,22.60
2023-02-14T01:25:12.097Z,22.50
2023-02-14T01:27:39.223Z,22.50
2023-02-14T01:30:07.305Z,22.50
2023-02-14T01:32:34.757Z,22.90
2023-02-14T01:35:02.162Z,22.90
2023-02-14T01:37:30.676Z,22.90
2023-02-14T01:39:57.740Z,23.00
2023-02-14T01:42:24.724Z,22.80
2023-02-14T01:44:58.206Z,22.40
2023-02-14T01:47:28.945Z,22.30
2023-02-14T01:50:07.403Z,22.20
2023-02-14T01:52:51.541Z,22.30
2023-02-14T01:55:22.198Z,21.90
2023-02-14T01:58:11.948Z,21.70
2023-02-14T02:00:59.311Z,21.90
2023-02-14T02:03:28.478Z,21.90
2023-02-14T02:06:03.525Z,21.70
2023-02-14T02:08:30.786Z,21.60
2023-02-14T02:10:58.071Z,21.50
2023-02-14T02:13:25.257Z,21.50
2023-02-14T02:16:22.734Z,21.40
2023-02-14T02:18:57.422Z,21.30
2023-02-14T02:21:43.408Z,21.30
2023-02-14T02:24:43.441Z,21.10
2023-02-14T02:27:47.828Z,20.90
2023-02-14T02:30:47.701Z,20.70
2023-02-14T02:33:39.268Z,20.70
2023-02-14T02:36:21.423Z,20.60
2023-02-14T02:39:13.959Z,20.40
2023-02-14T02:42:12.365Z,20.50
2023-02-14T02:44:52.148Z,20.40
2023-02-14T02:47:40.231Z,20.60
2023-02-14T02:50:46.136Z,20.50
2023-02-14T02:53:24.503Z,20.50
2023-02-14T02:56:35.314Z,20.40
2023-02-14T02:59:45.772Z,20.30
2023-02-14T03:02:23.780Z,20.30
2023-02-14T03:05:03.312Z,20.60
2023-02-14T03:07:34.927Z,20.90
2023-02-14T03:10:28.374Z,21.30
2023-02-14T03:13:11.264Z,21.60
2023-02-14T03:16:16.944Z,21.80
2023-02-14T03:19:17.154Z,21.60
2023-02-14T03:21:56.701Z,22.30
2023-02-14T03:24:44.765Z,21.40
2023-02-14T03:27:27.837Z,21.30
2023-02-14T03:30:13.574Z,21.10
2023-02-14T03:33:03.856Z,21.20
2023-02-14T03:35:40.889Z,21.20
2023-02-14T03:38:33.001Z,21.40
2023-02-14T03:41:09.178Z,21.40
2023-02-14T03:43:41.914Z,21.10
2023-02-14T03:46:29.270Z,20.90
2023-02-14T03:49:00.112Z,20.80
2023-02-14T03:51:29.114Z,20.90
2023-02-14T03:53:58.913Z,21.10
2023-02-14T03:56:41.047Z,20.90
2023-02-14T03:59:20.258Z,20.80
2023-02-14T04:02:01.574Z,20.60
2023-02-14T04:04:33.692Z,20.50
2023-02-14T04:07:07.863Z,20.50
2023-02-14T04:09:34.829Z,20.40
2023-02-14T04:12:01.809Z,20.40
2023-02-14T04:14:30.416Z,20.30
2023-02-14T04:17:16.132Z,20.30
2023-02-14T04:19:43.198Z,20.20
2023-02-14T04:22:10.225Z,20.30
2023-02-14T04:24:37.205Z,20.50
2023-02-14T04:27:11.098Z,20.60
2023-02-14T04:29:43.686Z,20.50
2023-02-14T04:32:14.824Z,20.40
2023-02-14T04:34:42.048Z,20.60
2023-02-14T04:37:09.728Z,21.20
2023-02-14T04:39:36.903Z,21.60
2023-02-14T04:42:04.787Z,21.30
2023-02-14T04:44:34.008Z,21.10
2023-02-14T04:47:01.884Z,20.90
2023-02-14T04:49:28.854Z,21.10
2023-02-14T04:51:55.998Z,21.10
2023-02-14T04:54:23.287Z,20.90
2023-02-14T04:56:50.574Z,20.70
2023-02-14T04:59:17.967Z,20.70
2023-02-14T05:01:45.194Z,20.80
2023-02-14T05:04:12.363Z,20.70
2023-02-14T05:06:39.533Z,20.80
2023-02-14T05:09:06.820Z,20.70
2023-02-14T05:11:33.946Z,20.60
2023-02-14T05:14:00.965Z,20.50
2023-02-14T05:16:28.125Z,20.50
2023-02-14T05:18:55.228Z,20.40
2023-02-14T05:21:22.368Z,20.40
2023-02-14T05:23:49.417Z,20.50
2023-02-14T05:26:16.654Z,21.00
2023-02-14T05:28:43.693Z,21.10
2023-02-14T05:31:10.986Z,21.10
2023-02-14T05:33:38.172Z,21.80
2023-02-14T05:36:05.500Z,22.50
2023-02-14T05:38:33.650Z,22.90
2023-02-14T05:41:01.608Z,22.80
2023-02-14T05:43:30.321Z,23.00
2023-02-14T05:45:58.640Z,22.70
2023-02-14T05:48:25.816Z,22.90
2023-02-14T05:50:53.129Z,22.70
2023-02-14T05:53:20.381Z,23.00
2023-02-14T05:55:47.601Z,23.20
2023-02-14T05:58:14.813Z,22.90
2023-02-14T06:00:41.914Z,22.20
2023-02-14T06:03:09.136Z,22.00
2023-02-14T06:05:36.161Z,22.10
2023-02-14T06:08:03.286Z,22.40
2023-02-14T06:10:30.516Z,22.40
2023-02-14T06:12:57.808Z,22.50
2023-02-14T06:15:24.900Z,22.00
2023-02-14T06:17:56.274Z,21.60
2023-02-14T06:20:24.743Z,21.20
2023-02-14T06:22:52.116Z,21.20
2023-02-14T06:25:20.323Z,21.30
2023-02-14T06:27:49.239Z,21.20
2023-02-14T06:30:18.361Z,21.40
2023-02-14T06:32:45.558Z,21.70
2023-02-14T06:35:13.790Z,21.90
2023-02-14T06:37:42.271Z,22.10
2023-02-14T06:40:10.519Z,22.40
2023-02-14T06:42:38.556Z,22.40
2023-02-14T06:45:06.656Z,21.80
2023-02-14T06:47:35.117Z,21.60
2023-02-14T06:50:05.184Z,21.60
2023-02-14T06:52:34.093Z,21.90
2023-02-14T06:55:01.107Z,21.90
2023-02-14T06:57:28.303Z,21.70
2023-02-14T06:59:55.806Z,21.80
2023-02-14T07:02:24.928Z,21.50
2023-02-14T07:04:52.371Z,21.40
2023-02-14T07:07:19.515Z,21.40
2023-02-14T07:09:46.587Z,21.30
2023-02-14T07:12:13.609Z,21.10
2023-02-14T07:14:40.704Z,21.10
2023-02-14T07:17:07.834Z,21.50
2023-02-14T07:19:35.114Z,21.30
2023-02-14T07:22:02.381Z,21.60
2023-02-14T07:24:29.390Z,21.60
2023-02-14T07:26:56.454Z,22.00
2023-02-14T07:29:23.664Z,22.10
2023-02-14T07:31:50.899Z,21.90
2023-02-14T07:34:18.075Z,21.40
2023-02-14T07:36:45.103Z,21.20
2023-02-14T07:39:12.165Z,21.00
2023-02-14T07:41:39.271Z,20.80
2023-02-14T07:44:06.236Z,20.60
2023-02-14T07:46:33.548Z,20.40
2023-02-14T07:49:00.597Z,20.30
2023-02-14T07:51:27.646Z,20.30
2023-02-14T07:53:54.813Z,20.20
2023-02-14T07:56:23.225Z,20.10
2023-02-14T07:58:50.337Z,20.20
2023-02-14T08:01:18.075Z,20.10
2023-02-14T08:03:49.365Z,20.20
2023-02-14T08:06:17.735Z,20.50
2023-02-14T08:08:45.090Z,20.70
2023-02-14T08:11:32.835Z,20.60
2023-02-14T08:14:00.089Z,20.80
2023-02-14T08:16:27.228Z,20.90
2023-02-14T08:18:54.433Z,20.80
2023-02-14T08:21:21.490Z,20.50
2023-02-14T08:23:48.540Z,20.50
2023-02-14T08:26:15.906Z,20.30
2023-02-14T08:28:43.317Z,20.20
2023-02-14T08:31:11.365Z,19.90
2023-02-14T08:33:38.418Z,20.00
2023-02-14T08:36:05.743Z,20.00
2023-02-14T08:38:32.834Z,19.80
2023-02-14T08:41:03.754Z,19.80
2023-02-14T08:43:34.215Z,19.90
2023-02-14T08:46:02.043Z,19.90
2023-02-14T08:48:29.453Z,19.80
2023-02-14T08:50:56.493Z,19.80
2023-02-14T08:53:23.846Z,19.60
2023-02-14T08:55:50.856Z,19.70
2023-02-14T08:58:18.517Z,19.80
2023-02-14T09:00:45.705Z,20.00
2023-02-14T09:03:13.006Z,20.00
2023-02-14T09:05:40.396Z,20.10
2023-02-14T09:08:07.912Z,20.00
2023-02-14T09:10:34.961Z,20.00
2023-02-14T09:13:02.124Z,20.30
2023-02-14T09:15:29.392Z,20.40
2023-02-14T09:17:56.737Z,20.20
2023-02-14T09:20:23.895Z,20.00
2023-02-14T09:22:51.860Z,20.00
2023-02-14T09:25:18.937Z,20.10
2023-02-14T09:27:45.967Z,20.40
2023-02-14T09:30:13.905Z,20.60
2023-02-14T09:32:41.150Z,20.60
2023-02-14T09:35:08.432Z,20.40
2023-02-14T09:37:35.489Z,20.20
2023-02-14T09:40:02.950Z,20.60
2023-02-14T09:43:15.959Z,20.60
2023-02-14T09:45:47.140Z,20.60
2023-02-14T09:48:33.516Z,20.20
2023-02-14T09:51:13.005Z,20.10
2023-02-14T09:54:03.954Z,20.60
2023-02-14T09:56:55.562Z,20.50
2023-02-14T09:59:28.774Z,20.50
2023-02-14T10:02:10.795Z,20.30
2023-02-14T10:04:47.042Z,20.20
2023-02-14T10:07:17.122Z,20.90
2023-02-14T10:09:47.218Z,20.40
2023-02-14T10:12:25.328Z,21.10
2023-02-14T10:14:55.499Z,21.00
2023-02-14T10:17:35.192Z,20.90
2023-02-14T10:20:05.840Z,20.80
2023-02-14T10:23:04.997Z,21.00
2023-02-14T10:25:56.855Z,20.70
2023-02-14T10:28:32.698Z,20.20
2023-02-14T10:31:15.293Z,20.30
2023-02-14T10:33:45.652Z,20.10
2023-02-14T10:36:36.812Z,19.90
2023-02-14T10:39:27.656Z,19.90
2023-02-14T10:42:28.741Z,19.50
2023-02-14T10:45:19.970Z,20.10
2023-02-14T10:47:53.382Z,20.50
2023-02-14T10:50:35.017Z,20.00
2023-02-14T10:53:28.200Z,20.30
2023-02-14T10:56:06.230Z,20.60
2023-02-14T10:58:38.606Z,20.20
2023-02-14T11:01:14.582Z,19.70
2023-02-14T11:03:52.694Z,20.10
2023-02-14T11:06:20.188Z,19.90
2023-02-14T11:08:47.271Z,19.40
2023-02-14T11:11:21.664Z,19.30
2023-02-14T11:13:49.249Z,19.00
2023-02-14T11:16:36.356Z,19.50
2023-02-14T11:19:15.592Z,19.00
2023-02-14T11:21:45.048Z,18.90
2023-02-14T11:24:25.661Z,19.00
2023-02-14T11:26:55.755Z,18.70
2023-02-14T11:29:33.358Z,19.10
2023-02-14T11:32:13.685Z,18.90
2023-02-14T11:34:54.362Z,18.80
2023-02-14T11:37:26.496Z,19.50
2023-02-14T11:39:55.486Z,19.00
2023-02-14T11:42:36.120Z,18.70
2023-02-14T11:45:05.322Z,18.80
2023-02-14T11:47:35.143Z,18.70
2023-02-14T11:50:21.261Z,18.50
2023-02-14T11:52:57.165Z,18.80
2023-02-14T11:55:30.295Z,19.20
2023-02-14T11:57:58.286Z,19.50
2023-02-14T12:00:27.899Z,19.40
2023-02-14T12:02:57.187Z,19.20
2023-02-14T12:05:47.658Z,19.00
2023-02-14T12:08:15.626Z,18.80
2023-02-14T12:10:42.908Z,18.70
2023-02-14T12:13:12.932Z,18.80
2023-02-14T12:16:00.611Z,19.10
2023-02-14T12:19:02.657Z,18.90
2023-02-14T12:21:41.818Z,19.60
2023-02-14T12:24:23.990Z,19.50
2023-02-14T12:26:55.818Z,19.40
2023-02-14T12:29:32.220Z,19.20
2023-02-14T12:32:06.052Z,19.00
2023-02-14T12:34:34.675Z,19.60
2023-02-14T12:37:27.933Z,19.80
2023-02-14T12:40:00.859Z,19.30
2023-02-14T12:42:46.326Z,18.90
2023-02-14T12:45:30.791Z,19.20
2023-02-14T12:48:38.172Z,19.40
2023-02-14T12:51:15.745Z,20.00
2023-02-14T12:53:46.656Z,19.80
2023-02-14T12:56:42.439Z,19.40
2023-02-14T12:59:24.372Z,20.00
2023-02-14T13:01:59.799Z,20.70
2023-02-14T13:04:45.158Z,20.30
2023-02-14T13:07:48.959Z,20.70
2023-02-14T13:10:41.829Z,20.00
2023-02-14T13:13:27.502Z,19.90
2023-02-14T13:16:19.355Z,20.10
2023-02-14T13:19:35.572Z,21.00
2023-02-14T13:22:07.319Z,20.80
2023-02-14T13:24:42.123Z,20.20
2023-02-14T13:27:16.606Z,19.80
2023-02-14T13:29:48.430Z,20.20
2023-02-14T13:32:20.182Z,19.70
2023-02-14T13:34:49.718Z,19.60
2023-02-14T13:37:20.708Z,19.20
2023-02-14T13:40:23.955Z,19.00
2023-02-14T13:42:52.679Z,18.80
2023-02-14T13:45:32.693Z,18.60
2023-02-14T13:48:24.793Z,18.40
2023-02-14T13:51:08.688Z,18.40
2023-02-14T13:53:47.257Z,18.40
2023-02-14T13:56:21.057Z,18.30
2023-02-14T13:58:50.066Z,18.20
2023-02-14T14:01:42.333Z,18.40
2023-02-14T14:04:33.251Z,18.80
2023-02-14T14:07:03.403Z,18.70
2023-02-14T14:09:42.850Z,18.70
2023-02-14T14:12:28.137Z,19.20
2023-02-14T14:15:07.012Z,19.70
2023-02-14T14:17:44.553Z,20.20
2023-02-14T14:20:20.083Z,20.60
2023-02-14T14:22:53.606Z,21.10
2023-02-14T14:25:39.792Z,21.10
2023-02-14T14:28:22.126Z,20.80
2023-02-14T14:30:49.416Z,20.50
2023-02-14T14:33:23.900Z,20.20
2023-02-14T14:35:56.087Z,19.90
2023-02-14T14:38:24.132Z,19.80
2023-02-14T14:40:51.930Z,20.00
2023-02-14T14:43:30.517Z,20.20
2023-02-14T14:46:00.063Z,20.90
2023-02-14T14:48:52.421Z,21.60
2023-02-14T14:51:32.194Z,22.10
2023-02-14T14:54:07.096Z,21.40
2023-02-14T14:56:47.071Z,21.90
2023-02-14T14:59:27.071Z,21.70
2023-02-14T15:01:54.628Z,21.60
2023-02-14T15:04:29.143Z,20.50
2023-02-14T15:06:58.824Z,20.30
2023-02-14T15:09:33.842Z,20.70
2023-02-14T15:12:21.773Z,21.00
2023-02-14T15:14:54.888Z,21.20
2023-02-14T15:17:31.545Z,20.90
2023-02-14T15:20:16.948Z,21.00
2023-02-14T15:22:46.769Z,20.50
2023-02-14T15:25:22.059Z,20.60
2023-02-14T15:27:49.701Z,21.20
2023-02-14T15:30:19.673Z,21.40
2023-02-14T15:32:49.739Z,20.90
2023-02-14T15:35:21.790Z,20.40
2023-02-14T15:37:51.453Z,20.20
2023-02-14T15:40:23.299Z,19.80
2023-02-14T15:42:56.765Z,19.60
2023-02-14T15:45:31.297Z,20.00
2023-02-14T15:48:03.682Z,20.10
2023-02-14T15:50:36.726Z,20.20
2023-02-14T15:53:27.834Z,20.30
2023-02-14T15:56:01.929Z,20.40
2023-02-14T15:58:32.791Z,20.60
2023-02-14T16:01:01.053Z,21.20
2023-02-14T16:03:33.940Z,20.90
2023-02-14T16:06:01.072Z,20.50
2023-02-14T16:08:35.692Z,20.20
2023-02-14T16:11:15.923Z,19.90
2023-02-14T16:13:47.351Z,20.10
2023-02-14T16:16:17.070Z,20.00
2023-02-14T16:18:45.666Z,20.00
2023-02-14T16:21:20.521Z,19.70
2023-02-14T16:24:18.560Z,20.00
2023-02-14T16:26:46.586Z,20.00
2023-02-14T16:29:16.218Z,20.00
2023-02-14T16:32:14.009Z,19.80
2023-02-14T16:34:37.287Z,20.00
2023-02-14T16:37:17.314Z,20.00
2023-02-14T16:39:44.843Z,20.20
2023-02-14T16:42:18.582Z,20.10
2023-02-14T16:44:46.751Z,19.90
2023-02-14T16:47:16.527Z,19.60
2023-02-14T16:49:43.943Z,19.60
2023-02-14T16:52:17.157Z,19.50
2023-02-14T16:54:44.654Z,19.70
2023-02-14T16:57:41.250Z,19.50
2023-02-14T17:00:09.690Z,19.60
2023-02-14T17:02:37.460Z,19.60
2023-02-14T17:05:05.081Z,19.90
2023-02-14T17:07:33.516Z,19.80
2023-02-14T17:10:10.663Z,19.70
2023-02-14T17:12:41.971Z,19.70
2023-02-14T17:15:13.470Z,20.00
2023-02-14T17:17:41.493Z,20.30
2023-02-14T17:20:09.559Z,20.70
2023-02-14T17:22:37.590Z,21.40
2023-02-14T17:25:06.259Z,21.50
2023-02-14T17:27:33.319Z,21.50
2023-02-14T17:30:00.449Z,21.00
2023-02-14T17:32:27.755Z,20.60
2023-02-14T17:34:54.995Z,20.10
2023-02-14T17:37:22.124Z,19.70
2023-02-14T17:39:49.486Z,19.50
2023-02-14T17:42:16.530Z,19.60
2023-02-14T17:44:44.811Z,19.70
2023-02-14T17:47:12.107Z,19.60
2023-02-14T17:49:39.193Z,19.40
2023-02-14T17:52:06.271Z,19.50
2023-02-14T17:54:38.917Z,20.00
2023-02-14T17:57:06.220Z,20.20
2023-02-14T17:59:34.236Z,20.00
2023-02-14T18:02:01.757Z,20.20
2023-02-14T18:04:30.449Z,19.80
2023-02-14T18:06:57.536Z,19.50
2023-02-14T18:09:25.994Z,19.60
2023-02-14T18:11:53.049Z,19.60
2023-02-14T18:14:20.234Z,19.60
2023-02-14T18:16:47.960Z,19.60
2023-02-14T18:19:18.193Z,20.20
2023-02-14T18:21:46.383Z,20.50
2023-02-14T18:24:15.412Z,20.90
2023-02-14T18:26:43.046Z,21.10
2023-02-14T18:29:11.129Z,21.40
2023-02-14T18:31:39.902Z,20.60
2023-02-14T18:34:07.763Z,20.40
2023-02-14T18:36:39.733Z,20.50
2023-02-14T18:39:08.701Z,20.10
2023-02-14T18:41:36.831Z,19.90
2023-02-14T18:44:04.827Z,19.90
2023-02-14T18:46:35.508Z,19.80
2023-02-14T18:49:04.744Z,20.10
2023-02-14T18:51:34.431Z,20.20
2023-02-14T18:54:02.603Z,20.30
2023-02-14T18:56:32.923Z,20.10
2023-02-14T18:59:06.510Z,20.10
2023-02-14T19:01:39.691Z,19.90
2023-02-14T19:04:08.759Z,19.50
2023-02-14T19:06:36.257Z,20.00
2023-02-14T19:09:07.306Z,20.40
2023-02-14T19:11:34.290Z,20.70
2023-02-14T19:14:03.022Z,20.90
2023-02-14T19:16:33.492Z,20.60
2023-02-14T19:19:02.664Z,20.40
2023-02-14T19:21:33.760Z,20.40
2023-02-14T19:24:02.570Z,20.50
2023-02-14T19:26:37.375Z,20.40
2023-02-14T19:29:08.369Z,20.50
2023-02-14T19:31:37.670Z,21.00
2023-02-14T19:34:07.010Z,21.70
2023-02-14T19:36:37.679Z,22.00
2023-02-14T19:39:05.612Z,22.60
2023-02-14T19:41:36.664Z,22.90
2023-02-14T19:44:05.651Z,23.00
2023-02-14T19:46:33.628Z,22.30
2023-02-14T19:49:01.657Z,21.80
2023-02-14T19:51:32.229Z,21.70
2023-02-14T19:54:01.469Z,21.90
2023-02-14T19:56:31.584Z,21.90
2023-02-14T19:58:59.881Z,22.00
2023-02-14T20:01:33.652Z,22.10
2023-02-14T20:04:01.233Z,22.00
2023-02-14T20:06:31.740Z,22.50
2023-02-14T20:08:59.027Z,22.60
2023-02-14T20:11:39.974Z,22.50
2023-02-14T20:14:09.218Z,21.80
2023-02-14T20:16:37.359Z,21.80
2023-02-14T20:19:08.321Z,21.20
2023-02-14T20:21:35.685Z,20.90
2023-02-14T20:24:04.647Z,20.90
2023-02-14T20:26:34.111Z,21.40
2023-02-14T20:29:06.080Z,21.40
2023-02-14T20:31:37.027Z,21.30
2023-02-14T20:34:04.320Z,21.40
2023-02-14T20:36:31.474Z,21.40
2023-02-14T20:39:00.996Z,21.50
2023-02-14T20:41:28.870Z,21.50
2023-02-14T20:44:03.376Z,21.30
2023-02-14T20:46:31.864Z,21.20
2023-02-14T20:48:59.174Z,21.20
2023-02-14T20:51:26.625Z,20.80
2023-02-14T20:53:54.286Z,20.40
2023-02-14T20:56:23.665Z,20.10
2023-02-14T20:58:51.552Z,20.30
2023-02-14T21:01:27.994Z,20.90
2023-02-14T21:03:55.872Z,21.30
2023-02-14T21:06:26.469Z,22.50
2023-02-14T21:08:53.637Z,23.00
2023-02-14T21:11:25.619Z,22.40
2023-02-14T21:13:59.675Z,21.90
2023-02-14T21:16:28.240Z,22.20
2023-02-14T21:18:59.358Z,22.70
2023-02-14T21:21:32.553Z,23.20
2023-02-14T21:24:02.590Z,22.60
2023-02-14T21:26:29.851Z,22.80
2023-02-14T21:28:56.997Z,22.50
2023-02-14T21:31:25.843Z,22.60
2023-02-14T21:33:57.759Z,22.60
2023-02-14T21:36:35.734Z,22.90
2023-02-14T21:39:04.594Z,23.20
2023-02-14T21:41:32.744Z,23.80
2023-02-14T21:44:01.502Z,23.60
2023-02-14T21:46:31.741Z,23.00
2023-02-14T21:49:21.720Z,23.30
2023-02-14T21:51:49.258Z,23.50
2023-02-14T21:54:16.999Z,23.60
2023-02-14T21:56:44.422Z,22.80
2023-02-14T21:59:12.120Z,22.50
2023-02-14T22:01:41.273Z,22.20
2023-02-14T22:04:10.303Z,21.40
2023-02-14T22:06:40.014Z,20.90
2023-02-14T22:09:07.779Z,20.40
2023-02-14T22:11:35.837Z,20.40
2023-02-14T22:14:03.127Z,20.30
2023-02-14T22:16:30.579Z,21.10
2023-02-14T22:18:58.692Z,21.60
2023-02-14T22:21:27.422Z,21.30
2023-02-14T22:23:55.412Z,21.10
2023-02-14T22:26:27.702Z,20.60
2023-02-14T22:28:59.216Z,20.30
2023-02-14T22:31:30.353Z,20.00
2023-02-14T22:33:57.260Z,19.90
2023-02-14T22:36:24.283Z,19.70
2023-02-14T22:38:52.872Z,20.60
2023-02-14T22:41:22.279Z,21.40
2023-02-14T22:43:50.070Z,21.50
2023-02-14T22:46:20.039Z,20.80
2023-02-14T22:48:48.416Z,20.40
2023-02-14T22:51:20.553Z,20.10
2023-02-14T22:53:48.457Z,19.80
2023-02-14T22:56:19.602Z,19.80
2023-02-14T22:58:46.681Z,19.90
2023-02-14T23:01:16.120Z,20.00
2023-02-14T23:03:44.345Z,20.50
2023-02-14T23:06:12.733Z,21.10
2023-02-14T23:08:45.082Z,21.20
2023-02-14T23:11:14.732Z,20.90
2023-02-14T23:14:00.507Z,21.00
2023-02-14T23:16:46.385Z,21.10
2023-02-14T23:19:34.770Z,20.90
2023-02-14T23:22:12.448Z,21.60
2023-02-14T23:24:39.975Z,21.30
2023-02-14T23:27:08.244Z,21.30
2023-02-14T23:29:37.128Z,20.90
2023-02-14T23:32:05.934Z,20.60
2023-02-14T23:34:35.292Z,20.50
2023-02-14T23:37:03.286Z,20.60
2023-02-14T23:39:36.820Z,20.40
2023-02-14T23:42:09.201Z,20.70
2023-02-14T23:44:36.666Z,20.60
2023-02-14T23:47:06.027Z,20.40
2023-02-14T23:49:34.705Z,19.90
2023-02-14T23:52:02.228Z,19.80
2023-02-14T23:54:29.454Z,19.60
2023-02-14T23:56:57.678Z,19.50
2023-02-14T23:59:25.839Z,19.60
